Time;durP1;ratioP1;P1;durP2;ratioP2;P2;SDS_P1;SDS_P2;PMS_P1;PMS_P2;Temp;Humidity;BMP_temperature;BMP_pressure;BME280_temperature;BME280_humidity;BME280_pressure;Samples;Min_cycle;Max_cycle;Signal;HPM_P1;HPM_P2
2022/09/08 00:00:21;;;;;;;6.23;4.50;;;19.40;99.90;;;;;;5013674;28;20187;-69
2022/09/08 00:02:47;;;;;;;5.50;5.00;;;19.30;99.90;;;;;;5018780;28;20253;-69
2022/09/08 00:05:17;;;;;;;6.70;5.27;;;19.20;99.90;;;;;;5011413;28;20210;-69
2022/09/08 00:07:44;;;;;;;8.17;7.47;;;19.20;99.90;;;;;;5018087;28;20174;-69
2022/09/08 00:10:11;;;;;;;7.47;6.87;;;19.20;99.90;;;;;;5023458;28;20436;-69
2022/09/08 00:12:37;;;;;;;6.90;6.20;;;19.20;99.90;;;;;;5013904;28;20535;-69
2022/09/08 00:15:03;;;;;;;6.07;5.60;;;19.20;99.90;;;;;;5016474;28;20472;-69
2022/09/08 00:17:29;;;;;;;6.33;5.73;;;19.30;99.90;;;;;;5023225;28;20444;-69
2022/09/08 00:19:54;;;;;;;5.60;5.10;;;19.30;99.90;;;;;;5008530;28;20430;-69
2022/09/08 00:22:20;;;;;;;5.77;5.20;;;19.20;99.90;;;;;;5013914;28;20186;-69
2022/09/08 00:24:46;;;;;;;5.67;5.20;;;19.20;99.90;;;;;;5010592;28;20741;-69
2022/09/08 00:27:12;;;;;;;6.73;6.03;;;19.30;99.90;;;;;;5021068;28;20442;-69
2022/09/08 00:29:37;;;;;;;6.67;6.17;;;19.40;99.90;;;;;;5015882;28;20171;-69
2022/09/08 00:32:03;;;;;;;5.73;5.17;;;19.30;99.90;;;;;;5007600;28;20660;-69
2022/09/08 00:34:28;;;;;;;7.60;5.80;;;19.30;99.90;;;;;;5012139;28;20191;-69
2022/09/08 00:36:56;;;;;;;6.50;5.90;;;19.30;99.90;;;;;;5016748;28;20178;-69
2022/09/08 00:39:22;;;;;;;5.80;5.30;;;19.30;99.90;;;;;;5017606;28;20556;-69
2022/09/08 00:41:49;;;;;;;6.40;5.90;;;19.30;99.90;;;;;;5004331;28;20957;-69
2022/09/08 00:44:48;;;;;;;6.47;5.97;;;19.30;99.90;;;;;;5022504;28;20978;-69
2022/09/08 00:47:31;;;;;;;6.53;5.93;;;19.30;99.90;;;;;;5018572;28;20774;-69
2022/09/08 00:50:04;;;;;;;6.90;6.40;;;19.20;99.90;;;;;;5013507;28;20453;-69
2022/09/08 00:53:00;;;;;;;5.90;5.50;;;19.10;99.90;;;;;;5011226;28;20434;-69
2022/09/08 00:55:36;;;;;;;7.27;6.57;;;19.10;99.90;;;;;;5005046;28;20457;-69
2022/09/08 00:58:02;;;;;;;6.30;5.30;;;19.00;99.90;;;;;;5000821;28;22089;-69
2022/09/08 01:00:28;;;;;;;6.07;5.67;;;19.20;99.90;;;;;;5000949;28;20437;-70
2022/09/08 01:02:53;;;;;;;6.20;4.83;;;19.20;99.90;;;;;;5000484;28;20604;-70
2022/09/08 01:05:22;;;;;;;7.83;5.77;;;19.10;99.90;;;;;;5001392;28;20470;-69
2022/09/08 01:14:04;;;;;;;7.57;5.00;;;18.90;99.90;;;;;;5007263;28;20469;-69
2022/09/08 01:16:39;;;;;;;6.43;5.73;;;18.90;99.90;;;;;;4999104;28;20962;-70
2022/09/08 01:19:07;;;;;;;6.30;5.70;;;18.90;99.90;;;;;;5001232;28;20666;-70
2022/09/08 01:22:06;;;;;;;7.40;5.17;;;19.00;99.90;;;;;;5006619;28;20496;-69
2022/09/08 01:24:46;;;;;;;5.97;5.47;;;19.00;99.90;;;;;;5005143;28;20546;-70
2022/09/08 01:27:29;;;;;;;8.37;5.80;;;19.00;99.90;;;;;;5007510;28;20593;-70
2022/09/08 01:30:06;;;;;;;6.30;5.90;;;19.00;99.90;;;;;;5004068;28;20477;-70
2022/09/08 01:32:35;;;;;;;6.63;6.03;;;19.00;99.90;;;;;;5011124;28;20437;-70
2022/09/08 01:35:01;;;;;;;6.10;5.60;;;19.10;99.90;;;;;;5008786;28;20625;-70
2022/09/08 01:37:26;;;;;;;6.73;5.97;;;19.20;99.90;;;;;;5024181;28;20524;-70
2022/09/08 01:39:52;;;;;;;9.83;6.13;;;19.20;99.90;;;;;;5023228;28;20441;-70
2022/09/08 01:42:18;;;;;;;7.93;5.40;;;19.20;99.90;;;;;;5020494;28;20947;-70
2022/09/08 01:44:43;;;;;;;6.00;5.50;;;19.00;99.90;;;;;;5010720;28;20553;-70
2022/09/08 01:47:10;;;;;;;7.23;5.63;;;19.10;99.90;;;;;;5016313;28;20551;-70
2022/09/08 01:49:36;;;;;;;6.73;6.23;;;19.00;99.90;;;;;;5002616;28;20174;-70
2022/09/08 01:52:01;;;;;;;6.50;6.00;;;18.90;99.90;;;;;;5010014;28;20446;-70
2022/09/08 01:54:27;;;;;;;6.50;5.90;;;18.90;99.90;;;;;;5018054;28;20202;-70
2022/09/08 01:56:54;;;;;;;7.40;6.70;;;18.80;99.90;;;;;;5009384;28;20286;-70
2022/09/08 01:59:20;;;;;;;6.47;5.90;;;19.10;99.90;;;;;;5010735;28;20451;-70
2022/09/08 02:01:46;;;;;;;6.43;5.90;;;18.80;99.90;;;;;;5003296;28;20524;-70
2022/09/08 02:04:12;;;;;;;5.20;4.80;;;18.80;99.90;;;;;;5004948;28;20199;-70
2022/09/08 02:06:37;;;;;;;5.63;4.90;;;18.60;99.90;;;;;;5013082;28;20189;-70
2022/09/08 02:09:04;;;;;;;4.10;3.70;;;18.60;99.90;;;;;;5017740;28;20428;-70
2022/09/08 02:11:29;;;;;;;4.60;4.20;;;18.50;99.90;;;;;;5023442;28;20716;-70
2022/09/08 02:13:55;;;;;;;4.77;4.33;;;18.40;99.90;;;;;;5014639;28;20469;-70
2022/09/08 02:16:20;;;;;;;4.20;3.80;;;18.20;99.90;;;;;;5010972;28;20180;-70
2022/09/08 02:18:46;;;;;;;4.30;4.00;;;18.20;99.90;;;;;;5007241;28;20556;-70
2022/09/08 02:21:17;;;;;;;6.10;4.10;;;18.10;99.90;;;;;;5014679;28;20178;-71
2022/09/08 02:23:46;;;;;;;3.60;3.27;;;18.00;99.90;;;;;;4992745;28;20204;-70
2022/09/08 02:26:19;;;;;;;3.57;3.33;;;17.90;99.90;;;;;;4995861;28;20948;-70
2022/09/08 02:28:45;;;;;;;2.97;2.77;;;17.90;99.90;;;;;;5014532;28;20964;-71
2022/09/08 02:31:11;;;;;;;3.20;3.00;;;17.80;99.90;;;;;;5019824;28;20776;-70
2022/09/08 02:33:37;;;;;;;4.07;2.60;;;17.70;99.90;;;;;;5009891;28;20538;-70
2022/09/08 02:36:03;;;;;;;2.53;2.33;;;17.60;99.90;;;;;;5007272;28;20474;-70
2022/09/08 02:38:29;;;;;;;4.40;3.07;;;17.60;99.90;;;;;;4999044;28;20438;-70
2022/09/08 02:40:56;;;;;;;3.23;2.93;;;17.60;99.90;;;;;;5019153;28;20463;-70
2022/09/08 02:43:25;;;;;;;2.93;2.73;;;17.50;99.90;;;;;;5006488;28;20431;-70
2022/09/08 02:45:51;;;;;;;2.87;2.67;;;17.50;99.90;;;;;;5013192;28;20465;-70
2022/09/08 02:48:16;;;;;;;2.80;2.60;;;17.50;99.90;;;;;;5012166;28;20568;-70
2022/09/08 02:50:42;;;;;;;4.10;2.60;;;17.50;99.90;;;;;;5014100;28;20249;-70
2022/09/08 02:53:07;;;;;;;4.00;2.50;;;17.60;99.90;;;;;;5013164;28;20556;-70
2022/09/08 02:55:40;;;;;;;4.47;2.73;;;17.50;99.90;;;;;;5015682;28;20221;-70
2022/09/08 02:58:07;;;;;;;2.83;2.63;;;17.60;99.90;;;;;;5014770;28;20274;-70
2022/09/08 03:00:34;;;;;;;2.67;2.53;;;17.60;99.90;;;;;;5017351;28;20448;-70
2022/09/08 03:03:00;;;;;;;3.03;2.63;;;17.50;99.90;;;;;;5016693;28;20444;-70
2022/09/08 03:05:25;;;;;;;2.70;2.50;;;17.50;99.90;;;;;;5017518;28;20473;-70
2022/09/08 03:07:51;;;;;;;4.03;2.73;;;17.40;99.90;;;;;;5021575;28;20170;-70
2022/09/08 03:10:23;;;;;;;3.57;2.73;;;17.30;99.90;;;;;;5023472;28;20552;-70
2022/09/08 03:12:51;;;;;;;3.73;2.50;;;17.40;99.90;;;;;;5022199;28;20437;-70
2022/09/08 03:15:16;;;;;;;2.87;2.67;;;17.40;99.90;;;;;;5020387;28;20473;-70
2022/09/08 03:17:42;;;;;;;2.93;2.70;;;17.30;99.90;;;;;;5016373;28;20447;-70
2022/09/08 03:20:08;;;;;;;2.70;2.50;;;17.30;99.90;;;;;;5012251;28;20183;-70
2022/09/08 03:22:34;;;;;;;3.07;2.90;;;17.20;99.90;;;;;;5018286;28;20174;-71
2022/09/08 03:24:59;;;;;;;2.83;2.63;;;17.20;99.90;;;;;;4996758;28;20482;-70
2022/09/08 03:27:26;;;;;;;3.67;2.90;;;17.20;99.90;;;;;;5002596;28;20254;-70
2022/09/08 03:29:53;;;;;;;2.60;2.40;;;17.30;99.90;;;;;;5003302;28;20171;-70
2022/09/08 03:32:18;;;;;;;2.87;2.67;;;17.10;99.90;;;;;;5018936;28;20504;-70
2022/09/08 03:34:44;;;;;;;2.17;2.07;;;17.20;99.90;;;;;;5012022;28;20587;-70
2022/09/08 03:37:09;;;;;;;2.93;2.73;;;17.20;99.90;;;;;;5007262;28;20179;-70
2022/09/08 03:39:35;;;;;;;3.00;2.80;;;17.20;99.90;;;;;;5000123;28;20252;-70
2022/09/08 03:42:01;;;;;;;2.00;1.90;;;17.00;99.90;;;;;;5015934;28;20325;-70
2022/09/08 03:44:27;;;;;;;2.87;2.47;;;17.00;99.90;;;;;;5018169;28;20301;-70
2022/09/08 03:46:52;;;;;;;4.30;2.10;;;17.00;99.90;;;;;;5012496;28;20532;-70
2022/09/08 03:49:18;;;;;;;3.70;1.90;;;17.00;99.90;;;;;;5018005;28;20179;-70
2022/09/08 03:51:43;;;;;;;2.70;2.40;;;17.00;99.90;;;;;;5015464;28;20263;-70
2022/09/08 03:56:53;;;;;;;2.33;2.20;;;16.90;99.90;;;;;;5008414;28;20308;-70
2022/09/08 03:59:19;;;;;;;2.43;2.33;;;16.80;99.90;;;;;;5014550;28;20905;-70
2022/09/08 04:01:44;;;;;;;2.17;2.00;;;16.90;99.90;;;;;;5029443;28;20188;-70
2022/09/08 04:04:10;;;;;;;2.93;2.00;;;16.90;99.90;;;;;;5017275;28;20742;-70
2022/09/08 04:06:35;;;;;;;3.27;2.10;;;16.80;99.90;;;;;;5022403;28;20625;-71
2022/09/08 04:09:01;;;;;;;1.83;1.73;;;17.00;99.90;;;;;;5021128;28;20185;-70
2022/09/08 04:11:27;;;;;;;2.17;2.07;;;16.90;99.90;;;;;;5022295;28;20186;-70
2022/09/08 04:13:52;;;;;;;1.97;1.87;;;16.80;99.90;;;;;;5035109;22;20210;-65
2022/09/08 04:16:18;;;;;;;5.53;1.80;;;16.80;99.90;;;;;;5040828;28;20292;-63
2022/09/08 04:18:44;;;;;;;3.00;1.97;;;16.80;99.90;;;;;;5045769;28;20523;-64
2022/09/08 04:21:10;;;;;;;2.80;2.60;;;16.80;99.90;;;;;;5049015;28;20805;-64
2022/09/08 04:23:37;;;;;;;2.57;2.30;;;16.70;99.90;;;;;;5038340;28;20509;-64
2022/09/08 04:26:10;;;;;;;2.60;2.00;;;16.70;99.90;;;;;;5021257;28;20470;-64
2022/09/08 04:28:36;;;;;;;2.57;2.30;;;16.70;99.90;;;;;;5021732;28;20437;-63
2022/09/08 04:31:07;;;;;;;1.70;1.60;;;16.70;99.90;;;;;;5025516;28;20449;-64
2022/09/08 04:33:32;;;;;;;1.87;1.77;;;16.70;99.90;;;;;;5026587;28;20498;-64
2022/09/08 04:36:04;;;;;;;2.67;1.80;;;16.70;99.90;;;;;;5028587;28;20994;-64
2022/09/08 04:38:30;;;;;;;2.20;2.00;;;16.70;99.90;;;;;;5015262;28;20530;-64
2022/09/08 04:41:01;;;;;;;2.63;1.90;;;16.60;99.90;;;;;;5014454;28;20441;-64
2022/09/08 04:43:27;;;;;;;4.80;2.00;;;16.60;99.90;;;;;;5013237;28;20177;-64
2022/09/08 04:45:52;;;;;;;2.43;2.23;;;16.60;99.90;;;;;;5030149;28;21561;-65
2022/09/08 04:48:18;;;;;;;2.70;1.70;;;16.70;99.90;;;;;;5016617;28;20261;-64
2022/09/08 04:50:43;;;;;;;2.70;1.83;;;16.60;99.90;;;;;;5014174;28;20664;-64
2022/09/08 04:53:09;;;;;;;2.30;1.77;;;16.60;99.90;;;;;;5014199;28;20185;-64
2022/09/08 04:55:38;;;;;;;1.90;1.80;;;16.50;99.90;;;;;;5012196;28;20199;-64
2022/09/08 04:58:03;;;;;;;1.63;1.53;;;16.50;99.90;;;;;;5016011;28;20202;-64
2022/09/08 05:00:29;;;;;;;4.03;2.17;;;16.60;99.90;;;;;;5010776;28;20811;-64
2022/09/08 05:02:56;;;;;;;2.10;1.90;;;16.50;99.90;;;;;;5017030;28;20175;-65
2022/09/08 05:05:21;;;;;;;3.13;2.53;;;16.50;99.90;;;;;;5012535;28;20462;-64
2022/09/08 05:07:49;;;;;;;2.23;2.03;;;16.60;99.90;;;;;;5016850;28;20429;-65
2022/09/08 05:10:15;;;;;;;2.50;2.30;;;16.50;99.90;;;;;;5004759;28;20174;-65
2022/09/08 05:12:40;;;;;;;2.67;2.47;;;16.50;99.90;;;;;;5015910;28;20943;-65
2022/09/08 05:15:06;;;;;;;2.20;1.83;;;16.50;99.90;;;;;;5009358;28;20234;-65
2022/09/08 05:17:32;;;;;;;3.40;3.10;;;16.60;99.90;;;;;;5008672;28;20530;-65
2022/09/08 05:19:57;;;;;;;2.30;1.80;;;16.60;99.90;;;;;;5025834;28;20512;-64
2022/09/08 05:22:23;;;;;;;2.80;2.63;;;16.60;99.90;;;;;;5008375;28;20191;-64
2022/09/08 05:24:48;;;;;;;2.47;1.60;;;16.60;99.90;;;;;;5007703;28;20202;-64
2022/09/08 05:27:14;;;;;;;2.23;1.87;;;16.60;99.90;;;;;;5001607;28;20207;-64
2022/09/08 05:29:39;;;;;;;4.60;3.17;;;16.60;99.90;;;;;;5011276;28;20706;-64
2022/09/08 05:32:05;;;;;;;4.80;2.17;;;16.60;99.90;;;;;;5010728;28;20270;-65
2022/09/08 05:34:31;;;;;;;2.17;1.97;;;16.50;99.90;;;;;;5010663;28;20218;-64
2022/09/08 05:36:56;;;;;;;2.90;2.70;;;16.50;99.90;;;;;;5001544;28;20191;-64
2022/09/08 05:39:21;;;;;;;1.90;1.80;;;16.50;99.90;;;;;;5004355;28;20179;-64
2022/09/08 05:41:47;;;;;;;2.10;1.90;;;16.50;99.90;;;;;;5006244;28;20617;-64
2022/09/08 05:44:14;;;;;;;2.23;1.80;;;16.40;99.90;;;;;;5010802;28;20215;-64
2022/09/08 05:46:39;;;;;;;2.50;2.30;;;16.40;99.90;;;;;;5006291;28;20640;-64
2022/09/08 05:49:05;;;;;;;1.70;1.60;;;16.40;99.90;;;;;;5009145;28;20440;-64
2022/09/08 05:51:32;;;;;;;5.30;2.70;;;16.40;99.90;;;;;;5019860;28;20201;-64
2022/09/08 05:53:59;;;;;;;3.43;1.90;;;16.40;99.90;;;;;;5017137;28;20261;-64
2022/09/08 05:56:24;;;;;;;2.40;2.20;;;16.40;99.90;;;;;;5029111;28;20425;-64
2022/09/08 05:58:51;;;;;;;3.37;1.97;;;16.40;99.90;;;;;;5010485;28;20469;-64
2022/09/08 06:01:17;;;;;;;6.27;2.27;;;16.40;99.90;;;;;;5027642;28;20182;-64
2022/09/08 06:03:43;;;;;;;2.60;2.30;;;16.40;99.90;;;;;;5015717;28;20434;-64
2022/09/08 06:06:11;;;;;;;3.23;2.97;;;16.40;99.90;;;;;;5020763;28;20210;-64
2022/09/08 06:08:38;;;;;;;7.50;3.30;;;16.40;99.90;;;;;;5010546;28;20656;-64
2022/09/08 06:11:04;;;;;;;3.20;2.50;;;16.40;99.90;;;;;;5019943;28;20445;-64
2022/09/08 06:13:31;;;;;;;2.30;2.10;;;16.40;99.90;;;;;;5026778;28;20448;-64
2022/09/08 06:16:07;;;;;;;3.33;2.60;;;16.40;99.90;;;;;;5019387;28;21011;-65
2022/09/08 06:18:34;;;;;;;2.27;2.03;;;16.40;99.90;;;;;;5013644;28;20953;-64
2022/09/08 06:21:04;;;;;;;2.17;1.97;;;16.40;99.90;;;;;;5015202;28;20468;-65
2022/09/08 06:23:30;;;;;;;4.47;3.37;;;16.40;99.90;;;;;;5035940;28;20441;-62
2022/09/08 06:25:55;;;;;;;1.90;1.80;;;16.40;99.90;;;;;;5021755;28;20480;-64
2022/09/08 06:28:44;;;;;;;4.33;2.00;;;16.30;99.90;;;;;;5007564;28;20210;-65
2022/09/08 06:31:11;;;;;;;2.40;2.03;;;16.30;99.90;;;;;;5000731;28;20274;-64
2022/09/08 06:33:41;;;;;;;1.97;1.77;;;16.20;99.90;;;;;;5018844;28;20950;-65
2022/09/08 06:36:21;;;;;;;2.50;2.17;;;16.20;99.90;;;;;;5014939;28;20442;-64
2022/09/08 06:38:53;;;;;;;1.60;1.50;;;16.30;99.90;;;;;;5006672;28;20442;-65
2022/09/08 06:41:25;;;;;;;2.60;1.80;;;16.20;99.90;;;;;;5008983;28;20441;-65
2022/09/08 06:44:09;;;;;;;3.60;2.30;;;16.20;99.90;;;;;;5013660;28;20445;-67
2022/09/08 06:46:40;;;;;;;3.60;2.80;;;16.20;99.90;;;;;;5011371;28;20472;-66
2022/09/08 06:49:06;;;;;;;2.23;1.70;;;16.20;99.90;;;;;;5005092;28;20569;-70
2022/09/08 06:51:49;;;;;;;1.90;1.60;;;16.10;99.90;;;;;;4977768;28;20430;-67
2022/09/08 06:54:27;;;;;;;1.90;1.70;;;16.20;99.90;;;;;;4995283;28;20269;-66
2022/09/08 06:57:13;;;;;;;2.20;1.70;;;16.20;99.90;;;;;;4994922;28;20472;-65
2022/09/08 07:00:19;;;;;;;1.67;1.43;;;16.30;99.90;;;;;;5003996;28;20449;-66
2022/09/08 07:03:26;;;;;;;2.10;1.50;;;16.30;99.90;;;;;;4943844;28;20839;-67
2022/09/08 07:06:08;;;;;;;1.60;1.50;;;16.30;99.90;;;;;;5020150;28;20464;-66
2022/09/08 07:08:48;;;;;;;1.77;1.60;;;16.30;99.90;;;;;;5018187;28;21083;-66
2022/09/08 07:11:19;;;;;;;2.10;1.83;;;16.30;99.90;;;;;;5012042;28;20521;-66
2022/09/08 07:14:01;;;;;;;3.03;1.63;;;16.40;99.90;;;;;;5028850;28;20960;-66
2022/09/08 07:16:36;;;;;;;2.40;1.83;;;16.40;99.90;;;;;;5005782;28;20852;-65
2022/09/08 07:19:24;;;;;;;1.40;1.30;;;16.40;99.90;;;;;;5021673;28;20475;-66
2022/09/08 07:22:15;;;;;;;2.20;1.20;;;16.40;99.90;;;;;;5019573;28;20470;-66
2022/09/08 07:24:42;;;;;;;1.77;1.67;;;16.40;99.90;;;;;;5024333;28;20479;-65
2022/09/08 07:27:11;;;;;;;2.40;1.60;;;16.50;99.90;;;;;;5021817;28;20433;-65
2022/09/08 07:29:47;;;;;;;1.53;1.43;;;16.60;99.90;;;;;;5009898;28;20445;-66
2022/09/08 07:32:20;;;;;;;1.73;1.60;;;16.70;99.90;;;;;;5021623;28;20435;-68
2022/09/08 07:35:01;;;;;;;2.73;1.60;;;16.90;99.90;;;;;;5022736;28;20472;-66
2022/09/08 07:37:47;;;;;;;1.40;1.30;;;17.00;99.90;;;;;;5025042;28;20437;-65
2022/09/08 07:40:21;;;;;;;1.60;1.50;;;17.20;99.90;;;;;;5015981;28;20976;-71
2022/09/08 07:42:57;;;;;;;1.77;1.10;;;17.40;99.90;;;;;;5023109;28;20956;-66
2022/09/08 07:45:35;;;;;;;2.10;1.57;;;17.60;99.90;;;;;;5020289;28;20475;-66
2022/09/08 07:48:46;;;;;;;3.80;1.13;;;17.90;99.90;;;;;;5011054;28;20434;-66
2022/09/08 07:51:17;;;;;;;2.00;1.20;;;18.50;99.90;;;;;;5015703;28;20771;-70
2022/09/08 07:54:02;;;;;;;1.83;1.37;;;18.80;99.90;;;;;;5010930;28;20489;-67
2022/09/08 07:56:58;;;;;;;3.37;2.30;;;18.70;99.90;;;;;;5027519;28;20439;-66
2022/09/08 07:59:49;;;;;;;2.07;1.87;;;18.80;99.90;;;;;;5015746;28;20764;-65
2022/09/08 08:02:35;;;;;;;3.57;1.77;;;18.80;99.90;;;;;;5016840;28;20449;-66
2022/09/08 08:05:00;;;;;;;2.33;1.80;;;18.70;99.90;;;;;;5028718;28;20539;-66
2022/09/08 08:07:34;;;;;;;3.53;1.70;;;18.70;99.90;;;;;;5016538;28;20787;-67
2022/09/08 08:10:20;;;;;;;1.40;1.30;;;18.70;99.90;;;;;;5014906;28;20542;-73
2022/09/08 08:12:59;;;;;;;1.50;1.40;;;18.90;99.90;;;;;;5012134;28;20445;-66
2022/09/08 08:15:39;;;;;;;2.40;1.30;;;19.20;99.90;;;;;;5023334;28;20479;-67
2022/09/08 08:18:28;;;;;;;2.30;2.10;;;19.40;99.90;;;;;;5022701;28;20468;-69
2022/09/08 08:21:14;;;;;;;1.50;1.40;;;19.60;99.90;;;;;;5014542;28;20445;-66
2022/09/08 08:23:59;;;;;;;1.70;1.60;;;19.90;99.90;;;;;;5014033;28;20958;-68
2022/09/08 08:26:33;;;;;;;2.20;1.27;;;20.10;99.90;;;;;;5017309;28;20856;-64
2022/09/08 08:29:31;;;;;;;1.50;1.40;;;20.30;99.90;;;;;;5026867;28;20433;-71
2022/09/08 08:32:10;;;;;;;1.63;1.53;;;20.40;99.90;;;;;;5011003;28;20436;-67
2022/09/08 08:35:14;;;;;;;1.90;1.73;;;20.70;99.90;;;;;;5023705;28;20644;-66
2022/09/08 08:37:43;;;;;;;2.60;1.90;;;21.10;99.90;;;;;;5006601;28;20807;-67
2022/09/08 08:40:45;;;;;;;1.57;1.47;;;21.20;99.90;;;;;;5011170;28;21128;-65
2022/09/08 08:43:25;;;;;;;1.53;1.20;;;21.30;99.90;;;;;;5016197;28;20465;-65
2022/09/08 08:46:27;;;;;;;1.73;1.63;;;21.40;99.90;;;;;;5018249;28;20495;-66
2022/09/08 08:48:59;;;;;;;3.30;1.70;;;21.50;99.90;;;;;;5015710;28;20440;-66
2022/09/08 08:51:24;;;;;;;2.03;1.37;;;21.30;99.90;;;;;;5001943;28;20434;-66
2022/09/08 08:54:29;;;;;;;1.07;0.97;;;21.70;99.90;;;;;;5010601;28;20437;-68
2022/09/08 08:57:13;;;;;;;1.77;1.20;;;21.60;99.90;;;;;;5025214;28;20313;-68
2022/09/08 09:00:00;;;;;;;2.23;2.13;;;22.00;99.90;;;;;;5015791;28;21195;-66
2022/09/08 09:02:50;;;;;;;1.30;1.20;;;22.70;99.90;;;;;;5019089;28;20441;-66
2022/09/08 09:05:42;;;;;;;1.37;1.00;;;22.50;99.90;;;;;;5012142;28;20466;-66
2022/09/08 09:08:37;;;;;;;1.30;1.20;;;22.10;99.90;;;;;;5017786;28;20468;-69
2022/09/08 09:11:13;;;;;;;1.30;1.20;;;22.30;99.90;;;;;;5003663;28;20623;-66
2022/09/08 09:14:12;;;;;;;2.53;1.23;;;22.90;99.90;;;;;;5001761;28;20428;-66
2022/09/08 09:16:55;;;;;;;1.37;1.20;;;23.50;99.90;;;;;;5016560;28;20440;-66
2022/09/08 09:19:52;;;;;;;1.20;1.10;;;23.90;99.90;;;;;;5009155;28;20840;-67
2022/09/08 09:22:25;;;;;;;1.93;1.83;;;23.60;99.90;;;;;;5007205;28;20433;-65
2022/09/08 09:25:38;;;;;;;1.57;1.30;;;22.90;99.90;;;;;;5014540;28;20464;-66
2022/09/08 09:28:40;;;;;;;1.20;1.10;;;22.60;99.90;;;;;;4950986;28;20502;-66
2022/09/08 09:31:43;;;;;;;2.00;1.23;;;22.40;99.90;;;;;;4995899;28;20441;-65
2022/09/08 09:34:22;;;;;;;3.43;1.43;;;21.60;99.90;;;;;;5014908;28;20457;-66
2022/09/08 09:37:24;;;;;;;1.20;1.10;;;21.30;99.90;;;;;;5025297;28;20433;-65
2022/09/08 09:40:15;;;;;;;2.30;1.30;;;21.50;99.90;;;;;;4999953;28;20912;-67
2022/09/08 09:43:11;;;;;;;3.97;1.47;;;21.70;99.90;;;;;;5006024;28;20442;-65
2022/09/08 09:45:54;;;;;;;4.83;2.77;;;21.60;99.90;;;;;;5016164;28;20496;-66
2022/09/08 09:48:46;;;;;;;2.40;2.20;;;21.80;99.90;;;;;;5016768;28;20556;-66
2022/09/08 09:51:49;;;;;;;3.03;2.30;;;21.90;99.90;;;;;;4998277;28;20484;-65
2022/09/08 09:54:23;;;;;;;4.13;1.20;;;22.40;99.90;;;;;;5005281;28;20547;-66
2022/09/08 09:57:12;;;;;;;1.13;1.13;;;22.60;99.90;;;;;;5020871;28;20499;-68
2022/09/08 10:00:19;;;;;;;1.33;1.20;;;24.40;99.90;;;;;;5001790;28;20444;-66
2022/09/08 10:03:31;;;;;;;1.40;1.30;;;26.80;99.90;;;;;;5017518;28;20860;-67
2022/09/08 10:06:25;;;;;;;1.83;1.23;;;27.90;99.90;;;;;;5017994;28;20469;-66
2022/09/08 10:09:12;;;;;;;1.40;1.30;;;26.00;99.90;;;;;;5009433;28;20488;-66
2022/09/08 10:11:51;;;;;;;2.00;1.43;;;24.90;99.90;;;;;;5001017;28;20442;-66
2022/09/08 10:14:39;;;;;;;2.30;2.10;;;25.00;99.90;;;;;;5037937;22;21031;-64
2022/09/08 10:17:42;;;;;;;1.27;1.17;;;25.50;99.90;;;;;;5011448;28;20453;-66
2022/09/08 10:20:23;;;;;;;1.70;1.60;;;24.50;99.90;;;;;;4999453;28;21282;-66
2022/09/08 10:23:07;;;;;;;1.57;1.20;;;23.70;99.90;;;;;;5005119;28;20437;-65
2022/09/08 10:26:02;;;;;;;1.77;1.67;;;23.40;99.90;;;;;;4998860;28;21002;-65
2022/09/08 10:28:53;;;;;;;1.30;1.00;;;22.60;99.90;;;;;;4969474;28;20446;-66
2022/09/08 10:31:31;;;;;;;1.80;1.20;;;22.50;99.90;;;;;;4983043;28;20534;-65
2022/09/08 10:34:29;;;;;;;2.10;1.27;;;22.40;99.90;;;;;;4994517;28;20840;-65
2022/09/08 10:37:04;;;;;;;1.50;1.37;;;22.50;99.90;;;;;;4973296;28;20538;-66
2022/09/08 10:39:36;;;;;;;2.43;1.63;;;22.20;99.90;;;;;;4999548;28;20461;-66
2022/09/08 10:42:07;;;;;;;3.10;2.90;;;22.10;99.90;;;;;;4983245;28;20445;-66
2022/09/08 10:45:10;;;;;;;2.13;1.87;;;22.10;99.90;;;;;;4985174;28;20830;-66
2022/09/08 10:47:44;;;;;;;2.00;1.80;;;22.00;99.90;;;;;;4979235;28;20435;-66
2022/09/08 10:50:24;;;;;;;3.00;2.30;;;22.00;99.90;;;;;;4980329;28;20450;-66
2022/09/08 10:52:54;;;;;;;2.33;2.13;;;22.00;99.90;;;;;;4985613;28;20430;-66
2022/09/08 10:55:38;;;;;;;1.73;1.63;;;22.20;99.90;;;;;;4985508;28;21060;-66
2022/09/08 10:58:31;;;;;;;14.27;8.90;;;22.00;99.90;;;;;;4986584;28;20867;-66
2022/09/08 11:01:21;;;;;;;12.13;5.90;;;22.00;99.90;;;;;;4975392;28;20438;-66
2022/09/08 11:04:21;;;;;;;6.57;3.50;;;22.00;99.90;;;;;;4986207;28;20446;-65
2022/09/08 11:07:21;;;;;;;8.50;1.70;;;22.00;99.90;;;;;;4987244;28;20517;-65
2022/09/08 11:10:02;;;;;;;3.00;2.00;;;22.20;99.90;;;;;;4986355;28;20445;-66
2022/09/08 11:12:36;;;;;;;6.17;3.80;;;22.40;99.90;;;;;;4990510;28;20477;-65
2022/09/08 11:15:39;;;;;;;12.90;5.70;;;22.60;99.90;;;;;;4995062;28;20483;-65
2022/09/08 11:18:25;;;;;;;3.50;1.93;;;22.60;99.90;;;;;;4982252;28;20940;-65
2022/09/08 11:20:55;;;;;;;2.50;1.27;;;22.50;99.90;;;;;;4981860;28;20426;-65
2022/09/08 11:23:52;;;;;;;1.33;1.10;;;22.50;99.90;;;;;;4987154;28;20450;-65
2022/09/08 11:26:36;;;;;;;3.50;1.50;;;23.10;99.90;;;;;;4993677;28;20474;-65
2022/09/08 11:29:09;;;;;;;2.43;2.23;;;25.10;99.90;;;;;;4990085;28;20437;-65
2022/09/08 11:31:56;;;;;;;2.37;2.10;;;27.90;96.90;;;;;;4978427;28;20514;-65
2022/09/08 11:34:30;;;;;;;1.50;1.40;;;30.60;91.60;;;;;;4985075;28;20578;-66
2022/09/08 11:37:19;;;;;;;3.43;1.47;;;31.60;80.00;;;;;;4986308;28;20525;-65
2022/09/08 11:40:19;;;;;;;2.93;1.40;;;29.10;79.90;;;;;;4981780;28;20426;-63
2022/09/08 11:43:04;;;;;;;4.03;1.80;;;27.30;86.70;;;;;;4981387;28;20445;-63
2022/09/08 11:45:49;;;;;;;1.90;1.17;;;26.80;88.60;;;;;;4972043;28;20470;-65
2022/09/08 11:48:36;;;;;;;2.27;1.50;;;26.40;90.10;;;;;;4987324;28;20431;-65
2022/09/08 11:51:02;;;;;;;1.73;1.63;;;27.40;88.80;;;;;;4980863;28;20431;-66
2022/09/08 11:53:41;;;;;;;2.80;1.40;;;28.00;88.20;;;;;;4984752;28;20437;-65
2022/09/08 11:56:27;;;;;;;3.10;1.30;;;27.20;90.40;;;;;;4982898;28;20520;-65
2022/09/08 11:59:05;;;;;;;1.57;1.43;;;26.10;92.10;;;;;;4990222;28;20466;-66
2022/09/08 12:02:08;;;;;;;2.97;2.57;;;25.20;93.80;;;;;;4981530;28;20529;-67
2022/09/08 12:04:59;;;;;;;4.20;1.57;;;24.30;96.70;;;;;;4998773;28;21006;-68
2022/09/08 12:07:50;;;;;;;2.40;1.30;;;24.00;98.30;;;;;;4990109;28;20985;-67
2022/09/08 12:10:34;;;;;;;2.20;1.40;;;23.50;99.90;;;;;;4985408;28;21185;-67
2022/09/08 12:13:23;;;;;;;5.17;1.60;;;23.30;99.90;;;;;;4979699;28;20445;-71
2022/09/08 12:15:58;;;;;;;1.00;1.00;;;23.40;99.70;;;;;;4971318;28;20521;-73
2022/09/08 12:19:01;;;;;;;2.00;1.80;;;23.10;99.90;;;;;;4987662;28;20570;-67
2022/09/08 12:22:05;;;;;;;2.00;1.50;;;22.80;99.90;;;;;;4984354;28;20438;-67
2022/09/08 12:24:54;;;;;;;2.50;1.53;;;22.60;99.90;;;;;;4979667;28;20466;-67
2022/09/08 12:27:40;;;;;;;3.00;1.20;;;22.50;99.90;;;;;;4988919;28;21448;-67
2022/09/08 12:30:27;;;;;;;1.33;1.23;;;22.40;99.90;;;;;;4981083;28;20436;-67
2022/09/08 12:33:17;;;;;;;2.23;1.50;;;21.80;99.90;;;;;;4986440;28;20437;-67
2022/09/08 12:35:52;;;;;;;1.70;1.13;;;21.50;99.90;;;;;;4993595;28;20464;-67
2022/09/08 12:38:29;;;;;;;3.47;1.50;;;22.10;99.90;;;;;;4988003;28;20437;-67
2022/09/08 12:40:58;;;;;;;2.40;1.43;;;23.30;99.90;;;;;;4982980;28;20537;-67
2022/09/08 12:43:25;;;;;;;1.90;1.70;;;26.10;99.90;;;;;;4996703;28;20478;-68
2022/09/08 12:46:09;;;;;;;2.13;1.47;;;28.00;97.60;;;;;;4997396;28;20473;-67
2022/09/08 12:48:59;;;;;;;1.20;1.10;;;30.00;92.40;;;;;;4998403;28;20448;-67
2022/09/08 12:51:31;;;;;;;1.20;1.10;;;31.00;85.90;;;;;;4980820;28;20453;-65
2022/09/08 12:53:57;;;;;;;5.43;1.50;;;31.20;81.70;;;;;;4989832;28;20487;-65
2022/09/08 12:56:34;;;;;;;1.70;1.30;;;30.30;79.30;;;;;;4990744;28;20854;-67
2022/09/08 12:59:21;;;;;;;1.73;0.90;;;28.70;81.40;;;;;;4991792;28;20179;-67
2022/09/08 13:02:00;;;;;;;1.70;1.00;;;27.00;83.90;;;;;;4977194;28;20438;-67
2022/09/08 13:04:56;;;;;;;2.60;1.20;;;25.60;88.60;;;;;;4988786;28;20462;-67
2022/09/08 13:07:48;;;;;;;2.70;1.00;;;25.40;89.50;;;;;;4993351;28;20431;-67
2022/09/08 13:10:23;;;;;;;3.40;1.40;;;25.20;90.70;;;;;;4989432;28;21012;-67
2022/09/08 13:13:30;;;;;;;2.70;1.60;;;25.30;90.80;;;;;;5000041;28;20442;-67
2022/09/08 13:16:07;;;;;;;3.40;1.10;;;25.30;91.60;;;;;;4989554;28;20552;-67
2022/09/08 13:19:01;;;;;;;1.93;1.50;;;24.90;91.50;;;;;;4998131;28;20448;-67
2022/09/08 13:21:39;;;;;;;1.47;0.90;;;25.00;92.20;;;;;;4985437;28;20985;-67
2022/09/08 13:24:35;;;;;;;5.40;1.60;;;25.40;91.90;;;;;;4993212;28;20452;-67
2022/09/08 13:27:01;;;;;;;1.57;1.47;;;26.00;90.90;;;;;;4995579;28;20533;-67
2022/09/08 13:29:53;;;;;;;2.77;1.40;;;27.40;89.10;;;;;;4995906;28;20511;-67
2022/09/08 13:32:39;;;;;;;1.47;1.37;;;27.00;88.40;;;;;;4977407;28;20210;-67
2022/09/08 13:35:23;;;;;;;1.50;1.00;;;25.90;90.50;;;;;;4987572;28;20465;-67
2022/09/08 13:38:16;;;;;;;1.20;1.10;;;26.90;87.90;;;;;;4991286;28;20430;-68
2022/09/08 13:40:59;;;;;;;2.40;1.13;;;27.90;84.30;;;;;;4982223;28;20451;-68